sensor_id;sensor_type;location;lat;lon;timestamp;P1;durP1;ratioP1;P2;durP2;ratioP2
74791;SDS011;63319;46.046;17.802;2022-12-18T00:00:10;11.27;;;6.22;;
74791;SDS011;63319;46.046;17.802;2022-12-18T00:03:16;9.40;;;5.82;;
74791;SDS011;63319;46.046;17.802;2022-12-18T00:06:19;11.25;;;6.45;;
74791;SDS011;63319;46.046;17.802;2022-12-18T00:09:22;8.67;;;5.73;;
74791;SDS011;63319;46.046;17.802;2022-12-18T00:12:26;10.63;;;6.50;;
74791;SDS011;63319;46.046;17.802;2022-12-18T00:15:33;9.98;;;6.13;;
74791;SDS011;63319;46.046;17.802;2022-12-18T00:18:39;10.68;;;6.50;;
74791;SDS011;63319;46.046;17.802;2022-12-18T00:21:43;10.05;;;5.53;;
74791;SDS011;63319;46.046;17.802;2022-12-18T00:24:46;10.60;;;5.67;;
74791;SDS011;63319;46.046;17.802;2022-12-18T00:27:49;8.57;;;5.43;;
74791;SDS011;63319;46.046;17.802;2022-12-18T00:30:59;11.55;;;6.55;;
74791;SDS011;63319;46.046;17.802;2022-12-18T00:34:11;9.90;;;5.43;;
74791;SDS011;63319;46.046;17.802;2022-12-18T00:37:15;10.25;;;5.85;;
74791;SDS011;63319;46.046;17.802;2022-12-18T00:40:25;9.70;;;5.80;;
74791;SDS011;63319;46.046;17.802;2022-12-18T00:43:28;9.53;;;5.77;;
74791;SDS011;63319;46.046;17.802;2022-12-18T00:46:31;9.90;;;6.18;;
74791;SDS011;63319;46.046;17.802;2022-12-18T00:49:34;9.43;;;5.47;;
74791;SDS011;63319;46.046;17.802;2022-12-18T00:52:37;9.48;;;5.35;;
74791;SDS011;63319;46.046;17.802;2022-12-18T00:55:40;9.50;;;5.67;;
74791;SDS011;63319;46.046;17.802;2022-12-18T00:58:43;10.30;;;5.73;;
74791;SDS011;63319;46.046;17.802;2022-12-18T01:01:46;9.10;;;5.68;;
74791;SDS011;63319;46.046;17.802;2022-12-18T01:04:50;10.25;;;6.20;;
74791;SDS011;63319;46.046;17.802;2022-12-18T01:07:55;9.90;;;5.20;;
74791;SDS011;63319;46.046;17.802;2022-12-18T01:10:58;10.00;;;6.10;;
74791;SDS011;63319;46.046;17.802;2022-12-18T01:14:00;9.40;;;5.40;;
74791;SDS011;63319;46.046;17.802;2022-12-18T01:17:03;11.00;;;6.32;;
74791;SDS011;63319;46.046;17.802;2022-12-18T01:20:08;10.20;;;5.60;;
74791;SDS011;63319;46.046;17.802;2022-12-18T01:23:13;10.50;;;5.70;;
74791;SDS011;63319;46.046;17.802;2022-12-18T01:26:15;10.67;;;5.70;;
74791;SDS011;63319;46.046;17.802;2022-12-18T01:29:18;9.60;;;5.70;;
74791;SDS011;63319;46.046;17.802;2022-12-18T01:32:21;9.55;;;5.43;;
74791;SDS011;63319;46.046;17.802;2022-12-18T01:35:25;9.25;;;5.18;;
74791;SDS011;63319;46.046;17.802;2022-12-18T01:38:28;9.55;;;5.88;;
74791;SDS011;63319;46.046;17.802;2022-12-18T01:41:32;9.47;;;5.77;;
74791;SDS011;63319;46.046;17.802;2022-12-18T01:48:06;10.30;;;5.70;;
74791;SDS011;63319;46.046;17.802;2022-12-18T01:51:11;10.32;;;6.32;;
74791;SDS011;63319;46.046;17.802;2022-12-18T01:54:15;9.38;;;5.43;;
74791;SDS011;63319;46.046;17.802;2022-12-18T01:57:18;8.93;;;5.30;;
74791;SDS011;63319;46.046;17.802;2022-12-18T02:00:22;9.30;;;5.57;;
74791;SDS011;63319;46.046;17.802;2022-12-18T02:03:26;9.77;;;5.55;;
74791;SDS011;63319;46.046;17.802;2022-12-18T02:06:39;9.65;;;5.60;;
74791;SDS011;63319;46.046;17.802;2022-12-18T02:09:48;9.27;;;5.72;;
74791;SDS011;63319;46.046;17.802;2022-12-18T02:16:33;9.00;;;5.57;;
74791;SDS011;63319;46.046;17.802;2022-12-18T02:19:55;9.23;;;5.93;;
74791;SDS011;63319;46.046;17.802;2022-12-18T02:23:40;9.82;;;5.78;;
74791;SDS011;63319;46.046;17.802;2022-12-18T02:26:57;9.32;;;5.43;;
74791;SDS011;63319;46.046;17.802;2022-12-18T02:30:06;10.03;;;5.57;;
74791;SDS011;63319;46.046;17.802;2022-12-18T02:33:10;8.90;;;5.83;;
74791;SDS011;63319;46.046;17.802;2022-12-18T02:36:14;9.05;;;5.95;;
74791;SDS011;63319;46.046;17.802;2022-12-18T02:39:20;8.70;;;5.57;;
74791;SDS011;63319;46.046;17.802;2022-12-18T02:42:33;9.10;;;5.15;;
74791;SDS011;63319;46.046;17.802;2022-12-18T02:45:57;10.23;;;4.93;;
74791;SDS011;63319;46.046;17.802;2022-12-18T02:53:10;10.32;;;5.47;;
74791;SDS011;63319;46.046;17.802;2022-12-18T02:56:38;8.65;;;5.30;;
74791;SDS011;63319;46.046;17.802;2022-12-18T03:00:01;8.23;;;5.13;;
74791;SDS011;63319;46.046;17.802;2022-12-18T03:03:23;9.33;;;5.60;;
74791;SDS011;63319;46.046;17.802;2022-12-18T03:06:38;9.63;;;5.80;;
74791;SDS011;63319;46.046;17.802;2022-12-18T03:09:45;8.85;;;5.10;;
74791;SDS011;63319;46.046;17.802;2022-12-18T03:12:54;9.63;;;5.88;;
74791;SDS011;63319;46.046;17.802;2022-12-18T03:16:05;10.63;;;5.47;;
74791;SDS011;63319;46.046;17.802;2022-12-18T03:19:11;10.20;;;5.43;;
74791;SDS011;63319;46.046;17.802;2022-12-18T03:22:19;8.63;;;5.13;;
74791;SDS011;63319;46.046;17.802;2022-12-18T03:25:26;9.18;;;5.60;;
74791;SDS011;63319;46.046;17.802;2022-12-18T03:28:33;9.00;;;5.63;;
74791;SDS011;63319;46.046;17.802;2022-12-18T03:31:47;9.13;;;5.30;;
74791;SDS011;63319;46.046;17.802;2022-12-18T03:34:57;8.83;;;5.00;;
74791;SDS011;63319;46.046;17.802;2022-12-18T03:38:06;9.20;;;5.10;;
74791;SDS011;63319;46.046;17.802;2022-12-18T03:41:18;9.27;;;5.65;;
74791;SDS011;63319;46.046;17.802;2022-12-18T03:44:53;8.45;;;5.40;;
74791;SDS011;63319;46.046;17.802;2022-12-18T03:48:05;9.73;;;5.38;;
74791;SDS011;63319;46.046;17.802;2022-12-18T03:51:18;10.30;;;5.70;;
74791;SDS011;63319;46.046;17.802;2022-12-18T03:54:24;9.03;;;5.77;;
74791;SDS011;63319;46.046;17.802;2022-12-18T03:57:36;9.82;;;5.55;;
74791;SDS011;63319;46.046;17.802;2022-12-18T04:00:40;9.52;;;5.13;;
74791;SDS011;63319;46.046;17.802;2022-12-18T04:03:46;9.52;;;5.65;;
74791;SDS011;63319;46.046;17.802;2022-12-18T04:06:53;9.00;;;5.23;;
74791;SDS011;63319;46.046;17.802;2022-12-18T04:09:58;9.47;;;5.37;;
74791;SDS011;63319;46.046;17.802;2022-12-18T04:13:05;8.98;;;5.22;;
74791;SDS011;63319;46.046;17.802;2022-12-18T04:16:10;8.60;;;5.20;;
74791;SDS011;63319;46.046;17.802;2022-12-18T04:19:16;9.10;;;5.57;;
74791;SDS011;63319;46.046;17.802;2022-12-18T04:22:22;9.73;;;5.37;;
74791;SDS011;63319;46.046;17.802;2022-12-18T04:25:31;7.93;;;5.40;;
74791;SDS011;63319;46.046;17.802;2022-12-18T04:28:50;9.25;;;5.35;;
74791;SDS011;63319;46.046;17.802;2022-12-18T04:31:53;9.20;;;5.40;;
74791;SDS011;63319;46.046;17.802;2022-12-18T04:34:57;10.40;;;5.75;;
74791;SDS011;63319;46.046;17.802;2022-12-18T04:38:00;8.87;;;5.07;;
74791;SDS011;63319;46.046;17.802;2022-12-18T04:41:05;8.47;;;5.20;;
74791;SDS011;63319;46.046;17.802;2022-12-18T04:44:09;9.27;;;4.97;;
74791;SDS011;63319;46.046;17.802;2022-12-18T04:47:11;9.27;;;5.20;;
74791;SDS011;63319;46.046;17.802;2022-12-18T04:50:14;9.05;;;5.70;;
74791;SDS011;63319;46.046;17.802;2022-12-18T04:53:20;8.43;;;5.00;;
74791;SDS011;63319;46.046;17.802;2022-12-18T04:56:22;10.50;;;6.10;;
74791;SDS011;63319;46.046;17.802;2022-12-18T04:59:25;9.57;;;5.80;;
74791;SDS011;63319;46.046;17.802;2022-12-18T05:02:28;9.70;;;6.32;;
74791;SDS011;63319;46.046;17.802;2022-12-18T05:05:31;8.80;;;5.03;;
74791;SDS011;63319;46.046;17.802;2022-12-18T05:08:34;9.53;;;5.70;;
74791;SDS011;63319;46.046;17.802;2022-12-18T05:11:37;8.50;;;5.23;;
74791;SDS011;63319;46.046;17.802;2022-12-18T05:14:40;8.80;;;5.15;;
74791;SDS011;63319;46.046;17.802;2022-12-18T05:17:43;7.95;;;4.93;;
74791;SDS011;63319;46.046;17.802;2022-12-18T05:20:45;10.60;;;5.80;;
74791;SDS011;63319;46.046;17.802;2022-12-18T05:23:48;9.37;;;5.00;;
74791;SDS011;63319;46.046;17.802;2022-12-18T05:26:51;9.30;;;5.33;;
74791;SDS011;63319;46.046;17.802;2022-12-18T05:29:54;9.13;;;5.47;;
74791;SDS011;63319;46.046;17.802;2022-12-18T05:32:56;10.05;;;5.55;;
74791;SDS011;63319;46.046;17.802;2022-12-18T05:36:03;9.27;;;5.32;;
74791;SDS011;63319;46.046;17.802;2022-12-18T05:39:07;8.93;;;5.47;;
74791;SDS011;63319;46.046;17.802;2022-12-18T05:42:11;9.00;;;5.13;;
74791;SDS011;63319;46.046;17.802;2022-12-18T05:45:14;10.07;;;6.18;;
74791;SDS011;63319;46.046;17.802;2022-12-18T05:48:16;9.13;;;5.60;;
74791;SDS011;63319;46.046;17.802;2022-12-18T05:51:20;9.65;;;5.80;;
74791;SDS011;63319;46.046;17.802;2022-12-18T05:54:26;10.27;;;6.30;;
74791;SDS011;63319;46.046;17.802;2022-12-18T05:57:29;10.27;;;5.93;;
74791;SDS011;63319;46.046;17.802;2022-12-18T06:00:32;10.27;;;6.38;;
74791;SDS011;63319;46.046;17.802;2022-12-18T06:03:37;9.65;;;5.88;;
74791;SDS011;63319;46.046;17.802;2022-12-18T06:06:43;10.45;;;5.80;;
74791;SDS011;63319;46.046;17.802;2022-12-18T06:09:45;9.00;;;5.23;;
74791;SDS011;63319;46.046;17.802;2022-12-18T06:12:48;9.73;;;5.40;;
74791;SDS011;63319;46.046;17.802;2022-12-18T06:15:51;9.85;;;5.57;;
74791;SDS011;63319;46.046;17.802;2022-12-18T06:18:57;10.25;;;5.47;;
74791;SDS011;63319;46.046;17.802;2022-12-18T06:22:01;9.25;;;5.63;;
74791;SDS011;63319;46.046;17.802;2022-12-18T06:25:04;10.60;;;6.00;;
74791;SDS011;63319;46.046;17.802;2022-12-18T06:28:09;10.23;;;5.80;;
74791;SDS011;63319;46.046;17.802;2022-12-18T06:31:12;10.30;;;5.72;;
74791;SDS011;63319;46.046;17.802;2022-12-18T06:34:15;10.98;;;5.97;;
74791;SDS011;63319;46.046;17.802;2022-12-18T06:37:18;11.25;;;6.30;;
74791;SDS011;63319;46.046;17.802;2022-12-18T06:40:21;11.10;;;6.80;;
74791;SDS011;63319;46.046;17.802;2022-12-18T06:43:23;11.17;;;6.70;;
74791;SDS011;63319;46.046;17.802;2022-12-18T06:46:26;10.43;;;6.78;;
74791;SDS011;63319;46.046;17.802;2022-12-18T06:49:29;11.57;;;6.75;;
74791;SDS011;63319;46.046;17.802;2022-12-18T06:52:32;11.70;;;6.70;;
74791;SDS011;63319;46.046;17.802;2022-12-18T06:55:35;12.57;;;7.13;;
74791;SDS011;63319;46.046;17.802;2022-12-18T06:58:39;12.70;;;7.00;;
74791;SDS011;63319;46.046;17.802;2022-12-18T07:01:42;12.25;;;6.63;;
74791;SDS011;63319;46.046;17.802;2022-12-18T07:04:45;11.60;;;7.18;;
74791;SDS011;63319;46.046;17.802;2022-12-18T07:07:47;13.18;;;7.32;;
74791;SDS011;63319;46.046;17.802;2022-12-18T07:10:50;11.47;;;7.33;;
74791;SDS011;63319;46.046;17.802;2022-12-18T07:13:57;11.32;;;7.03;;
74791;SDS011;63319;46.046;17.802;2022-12-18T07:17:02;13.32;;;8.00;;
74791;SDS011;63319;46.046;17.802;2022-12-18T07:20:07;12.52;;;7.32;;
74791;SDS011;63319;46.046;17.802;2022-12-18T07:23:10;12.82;;;7.82;;
74791;SDS011;63319;46.046;17.802;2022-12-18T07:26:13;13.50;;;8.30;;
74791;SDS011;63319;46.046;17.802;2022-12-18T07:29:17;14.15;;;7.70;;
74791;SDS011;63319;46.046;17.802;2022-12-18T07:32:20;13.35;;;7.88;;
74791;SDS011;63319;46.046;17.802;2022-12-18T07:35:23;13.93;;;8.25;;
74791;SDS011;63319;46.046;17.802;2022-12-18T07:38:26;13.65;;;8.35;;
74791;SDS011;63319;46.046;17.802;2022-12-18T07:41:29;14.37;;;8.73;;
74791;SDS011;63319;46.046;17.802;2022-12-18T07:44:41;15.32;;;8.85;;
74791;SDS011;63319;46.046;17.802;2022-12-18T07:47:44;14.30;;;9.15;;
74791;SDS011;63319;46.046;17.802;2022-12-18T07:50:47;13.80;;;8.55;;
74791;SDS011;63319;46.046;17.802;2022-12-18T07:53:50;13.93;;;8.70;;
74791;SDS011;63319;46.046;17.802;2022-12-18T07:56:53;14.80;;;10.00;;
74791;SDS011;63319;46.046;17.802;2022-12-18T07:59:56;16.73;;;10.30;;
74791;SDS011;63319;46.046;17.802;2022-12-18T08:02:59;16.70;;;10.82;;
74791;SDS011;63319;46.046;17.802;2022-12-18T08:06:02;14.10;;;10.18;;
74791;SDS011;63319;46.046;17.802;2022-12-18T08:09:09;14.60;;;9.02;;
74791;SDS011;63319;46.046;17.802;2022-12-18T08:12:12;14.00;;;9.17;;
74791;SDS011;63319;46.046;17.802;2022-12-18T08:15:15;13.27;;;8.25;;
74791;SDS011;63319;46.046;17.802;2022-12-18T08:18:18;11.90;;;8.13;;
74791;SDS011;63319;46.046;17.802;2022-12-18T08:21:25;12.95;;;8.23;;
74791;SDS011;63319;46.046;17.802;2022-12-18T08:24:32;11.60;;;8.00;;
74791;SDS011;63319;46.046;17.802;2022-12-18T08:27:35;11.53;;;7.70;;
74791;SDS011;63319;46.046;17.802;2022-12-18T08:30:38;11.45;;;7.70;;
74791;SDS011;63319;46.046;17.802;2022-12-18T08:33:41;11.98;;;8.00;;
74791;SDS011;63319;46.046;17.802;2022-12-18T08:36:45;11.50;;;7.93;;
74791;SDS011;63319;46.046;17.802;2022-12-18T08:39:48;11.65;;;8.05;;
74791;SDS011;63319;46.046;17.802;2022-12-18T08:42:50;11.40;;;7.93;;
74791;SDS011;63319;46.046;17.802;2022-12-18T08:46:12;11.27;;;7.40;;
74791;SDS011;63319;46.046;17.802;2022-12-18T08:49:16;11.70;;;8.23;;
74791;SDS011;63319;46.046;17.802;2022-12-18T08:52:20;10.90;;;7.22;;
74791;SDS011;63319;46.046;17.802;2022-12-18T08:55:23;12.00;;;7.82;;
74791;SDS011;63319;46.046;17.802;2022-12-18T08:58:25;11.93;;;7.33;;
74791;SDS011;63319;46.046;17.802;2022-12-18T09:01:28;10.73;;;7.28;;
74791;SDS011;63319;46.046;17.802;2022-12-18T09:04:31;10.27;;;6.82;;
74791;SDS011;63319;46.046;17.802;2022-12-18T09:07:34;11.32;;;7.22;;
74791;SDS011;63319;46.046;17.802;2022-12-18T09:10:43;11.65;;;7.38;;
74791;SDS011;63319;46.046;17.802;2022-12-18T09:13:46;10.20;;;6.50;;
74791;SDS011;63319;46.046;17.802;2022-12-18T09:16:49;12.45;;;7.22;;
74791;SDS011;63319;46.046;17.802;2022-12-18T09:19:52;10.52;;;7.82;;
74791;SDS011;63319;46.046;17.802;2022-12-18T09:23:03;11.57;;;7.40;;
74791;SDS011;63319;46.046;17.802;2022-12-18T09:26:06;10.63;;;7.25;;
74791;SDS011;63319;46.046;17.802;2022-12-18T09:29:09;10.00;;;6.77;;
74791;SDS011;63319;46.046;17.802;2022-12-18T09:32:13;10.88;;;7.47;;
74791;SDS011;63319;46.046;17.802;2022-12-18T09:35:23;10.18;;;6.90;;
74791;SDS011;63319;46.046;17.802;2022-12-18T09:38:26;10.23;;;6.78;;
74791;SDS011;63319;46.046;17.802;2022-12-18T09:44:55;9.80;;;6.40;;
74791;SDS011;63319;46.046;17.802;2022-12-18T09:47:58;9.70;;;6.63;;
74791;SDS011;63319;46.046;17.802;2022-12-18T09:51:21;9.73;;;6.63;;
74791;SDS011;63319;46.046;17.802;2022-12-18T09:54:38;10.77;;;6.70;;
74791;SDS011;63319;46.046;17.802;2022-12-18T09:57:47;9.77;;;6.65;;
74791;SDS011;63319;46.046;17.802;2022-12-18T10:00:54;9.57;;;6.60;;
74791;SDS011;63319;46.046;17.802;2022-12-18T10:03:57;9.10;;;6.32;;
74791;SDS011;63319;46.046;17.802;2022-12-18T10:07:03;11.25;;;7.00;;
74791;SDS011;63319;46.046;17.802;2022-12-18T10:13:45;10.40;;;7.00;;
74791;SDS011;63319;46.046;17.802;2022-12-18T10:27:13;9.65;;;6.03;;
74791;SDS011;63319;46.046;17.802;2022-12-18T10:30:22;9.93;;;6.80;;
74791;SDS011;63319;46.046;17.802;2022-12-18T10:33:28;9.50;;;6.20;;
74791;SDS011;63319;46.046;17.802;2022-12-18T10:36:32;11.18;;;6.78;;
74791;SDS011;63319;46.046;17.802;2022-12-18T10:39:35;9.38;;;6.32;;
74791;SDS011;63319;46.046;17.802;2022-12-18T10:42:38;10.13;;;6.60;;
74791;SDS011;63319;46.046;17.802;2022-12-18T10:45:42;9.10;;;6.28;;
74791;SDS011;63319;46.046;17.802;2022-12-18T10:49:23;9.73;;;6.60;;
74791;SDS011;63319;46.046;17.802;2022-12-18T10:52:29;9.82;;;6.57;;
74791;SDS011;63319;46.046;17.802;2022-12-18T10:55:33;10.68;;;6.57;;
74791;SDS011;63319;46.046;17.802;2022-12-18T10:58:38;8.10;;;5.57;;
74791;SDS011;63319;46.046;17.802;2022-12-18T11:04:50;9.77;;;6.50;;
74791;SDS011;63319;46.046;17.802;2022-12-18T11:07:54;9.07;;;6.25;;
74791;SDS011;63319;46.046;17.802;2022-12-18T11:10:58;8.85;;;5.93;;
74791;SDS011;63319;46.046;17.802;2022-12-18T11:14:04;9.05;;;5.72;;
74791;SDS011;63319;46.046;17.802;2022-12-18T11:17:30;8.52;;;5.93;;
74791;SDS011;63319;46.046;17.802;2022-12-18T11:20:35;8.53;;;5.80;;
74791;SDS011;63319;46.046;17.802;2022-12-18T11:23:47;8.77;;;5.95;;
74791;SDS011;63319;46.046;17.802;2022-12-18T11:26:50;9.20;;;6.07;;
74791;SDS011;63319;46.046;17.802;2022-12-18T11:33:25;9.23;;;5.88;;
74791;SDS011;63319;46.046;17.802;2022-12-18T11:36:29;9.20;;;5.77;;
74791;SDS011;63319;46.046;17.802;2022-12-18T11:39:44;8.98;;;6.05;;
74791;SDS011;63319;46.046;17.802;2022-12-18T11:42:54;9.15;;;6.47;;
74791;SDS011;63319;46.046;17.802;2022-12-18T11:46:23;8.88;;;5.57;;
74791;SDS011;63319;46.046;17.802;2022-12-18T11:49:33;8.95;;;5.50;;
74791;SDS011;63319;46.046;17.802;2022-12-18T11:52:38;8.00;;;5.60;;
74791;SDS011;63319;46.046;17.802;2022-12-18T11:59:09;8.40;;;5.30;;
74791;SDS011;63319;46.046;17.802;2022-12-18T12:02:31;10.05;;;5.90;;
74791;SDS011;63319;46.046;17.802;2022-12-18T12:09:10;8.97;;;5.70;;
74791;SDS011;63319;46.046;17.802;2022-12-18T12:19:07;9.07;;;5.95;;
74791;SDS011;63319;46.046;17.802;2022-12-18T12:22:33;8.85;;;5.85;;
74791;SDS011;63319;46.046;17.802;2022-12-18T12:25:52;8.00;;;5.33;;
74791;SDS011;63319;46.046;17.802;2022-12-18T12:29:07;8.77;;;5.80;;
74791;SDS011;63319;46.046;17.802;2022-12-18T12:39:08;9.00;;;5.95;;
74791;SDS011;63319;46.046;17.802;2022-12-18T12:42:26;8.30;;;5.30;;
74791;SDS011;63319;46.046;17.802;2022-12-18T12:46:06;9.35;;;5.60;;
74791;SDS011;63319;46.046;17.802;2022-12-18T12:49:14;8.23;;;5.88;;
74791;SDS011;63319;46.046;17.802;2022-12-18T12:52:42;9.23;;;5.28;;
74791;SDS011;63319;46.046;17.802;2022-12-18T12:55:45;7.97;;;5.45;;
74791;SDS011;63319;46.046;17.802;2022-12-18T13:02:06;8.02;;;5.32;;
74791;SDS011;63319;46.046;17.802;2022-12-18T13:05:59;9.20;;;5.63;;
74791;SDS011;63319;46.046;17.802;2022-12-18T13:09:08;9.10;;;5.70;;
74791;SDS011;63319;46.046;17.802;2022-12-18T13:12:11;7.82;;;5.28;;
74791;SDS011;63319;46.046;17.802;2022-12-18T13:15:43;8.50;;;5.50;;
74791;SDS011;63319;46.046;17.802;2022-12-18T13:18:50;8.15;;;4.93;;
74791;SDS011;63319;46.046;17.802;2022-12-18T13:21:55;8.55;;;5.78;;
74791;SDS011;63319;46.046;17.802;2022-12-18T13:24:59;7.57;;;4.70;;
74791;SDS011;63319;46.046;17.802;2022-12-18T13:34:32;9.13;;;5.80;;
74791;SDS011;63319;46.046;17.802;2022-12-18T13:43:57;8.05;;;5.45;;
74791;SDS011;63319;46.046;17.802;2022-12-18T13:50:37;8.68;;;5.05;;
74791;SDS011;63319;46.046;17.802;2022-12-18T13:53:54;8.05;;;5.38;;
74791;SDS011;63319;46.046;17.802;2022-12-18T13:56:59;9.63;;;5.57;;
74791;SDS011;63319;46.046;17.802;2022-12-18T14:03:34;8.40;;;4.97;;
74791;SDS011;63319;46.046;17.802;2022-12-18T14:06:37;9.38;;;6.00;;
74791;SDS011;63319;46.046;17.802;2022-12-18T14:09:41;8.18;;;5.75;;
74791;SDS011;63319;46.046;17.802;2022-12-18T14:12:49;9.13;;;5.50;;
74791;SDS011;63319;46.046;17.802;2022-12-18T14:16:00;9.20;;;5.78;;
74791;SDS011;63319;46.046;17.802;2022-12-18T14:19:08;8.67;;;5.20;;
74791;SDS011;63319;46.046;17.802;2022-12-18T14:22:21;8.20;;;5.05;;
74791;SDS011;63319;46.046;17.802;2022-12-18T14:25:30;9.05;;;6.03;;
74791;SDS011;63319;46.046;17.802;2022-12-18T14:28:42;9.45;;;5.43;;
74791;SDS011;63319;46.046;17.802;2022-12-18T14:31:46;8.48;;;5.10;;
74791;SDS011;63319;46.046;17.802;2022-12-18T14:35:13;8.00;;;5.27;;
74791;SDS011;63319;46.046;17.802;2022-12-18T14:41:18;8.68;;;5.45;;
74791;SDS011;63319;46.046;17.802;2022-12-18T14:44:23;8.55;;;5.03;;
74791;SDS011;63319;46.046;17.802;2022-12-18T14:47:26;8.35;;;5.22;;
74791;SDS011;63319;46.046;17.802;2022-12-18T14:50:29;8.57;;;5.20;;
74791;SDS011;63319;46.046;17.802;2022-12-18T14:56:46;8.25;;;5.47;;
74791;SDS011;63319;46.046;17.802;2022-12-18T14:59:51;8.35;;;5.38;;
74791;SDS011;63319;46.046;17.802;2022-12-18T15:02:54;8.63;;;5.43;;
74791;SDS011;63319;46.046;17.802;2022-12-18T15:06:14;8.33;;;5.20;;
74791;SDS011;63319;46.046;17.802;2022-12-18T15:09:27;8.77;;;5.10;;
74791;SDS011;63319;46.046;17.802;2022-12-18T15:18:44;8.65;;;5.20;;
74791;SDS011;63319;46.046;17.802;2022-12-18T15:21:49;8.03;;;4.73;;
74791;SDS011;63319;46.046;17.802;2022-12-18T15:24:52;8.23;;;4.82;;
74791;SDS011;63319;46.046;17.802;2022-12-18T15:27:56;8.75;;;5.28;;
74791;SDS011;63319;46.046;17.802;2022-12-18T15:34:26;8.88;;;4.90;;
74791;SDS011;63319;46.046;17.802;2022-12-18T15:37:30;8.10;;;4.70;;
74791;SDS011;63319;46.046;17.802;2022-12-18T15:40:34;8.75;;;5.20;;
74791;SDS011;63319;46.046;17.802;2022-12-18T15:43:38;8.38;;;5.10;;
74791;SDS011;63319;46.046;17.802;2022-12-18T15:46:42;8.27;;;4.95;;
74791;SDS011;63319;46.046;17.802;2022-12-18T15:49:46;8.88;;;5.20;;
74791;SDS011;63319;46.046;17.802;2022-12-18T15:52:51;8.33;;;4.63;;
74791;SDS011;63319;46.046;17.802;2022-12-18T15:55:57;9.25;;;5.07;;
74791;SDS011;63319;46.046;17.802;2022-12-18T15:59:22;9.20;;;5.50;;
74791;SDS011;63319;46.046;17.802;2022-12-18T16:02:27;7.95;;;5.28;;
74791;SDS011;63319;46.046;17.802;2022-12-18T16:05:31;8.60;;;5.32;;
74791;SDS011;63319;46.046;17.802;2022-12-18T16:08:35;8.50;;;4.97;;
74791;SDS011;63319;46.046;17.802;2022-12-18T16:11:41;10.70;;;5.57;;
74791;SDS011;63319;46.046;17.802;2022-12-18T16:14:46;8.60;;;5.05;;
74791;SDS011;63319;46.046;17.802;2022-12-18T16:17:50;8.88;;;5.47;;
74791;SDS011;63319;46.046;17.802;2022-12-18T16:20:54;9.52;;;5.93;;
74791;SDS011;63319;46.046;17.802;2022-12-18T16:23:58;10.00;;;6.57;;
74791;SDS011;63319;46.046;17.802;2022-12-18T16:27:02;10.40;;;6.45;;
74791;SDS011;63319;46.046;17.802;2022-12-18T16:30:06;10.70;;;7.18;;
74791;SDS011;63319;46.046;17.802;2022-12-18T16:33:12;11.43;;;6.70;;
74791;SDS011;63319;46.046;17.802;2022-12-18T16:36:16;11.32;;;7.28;;
74791;SDS011;63319;46.046;17.802;2022-12-18T16:39:20;11.67;;;7.40;;
74791;SDS011;63319;46.046;17.802;2022-12-18T16:42:26;10.48;;;7.00;;
74791;SDS011;63319;46.046;17.802;2022-12-18T16:45:29;10.52;;;7.10;;
74791;SDS011;63319;46.046;17.802;2022-12-18T16:48:36;11.63;;;6.95;;
74791;SDS011;63319;46.046;17.802;2022-12-18T16:51:39;10.73;;;7.05;;
74791;SDS011;63319;46.046;17.802;2022-12-18T16:54:42;14.00;;;7.33;;
74791;SDS011;63319;46.046;17.802;2022-12-18T16:57:47;10.98;;;7.07;;
74791;SDS011;63319;46.046;17.802;2022-12-18T17:00:50;11.25;;;7.78;;
74791;SDS011;63319;46.046;17.802;2022-12-18T17:03:58;12.25;;;7.53;;
74791;SDS011;63319;46.046;17.802;2022-12-18T17:07:03;11.90;;;7.28;;
74791;SDS011;63319;46.046;17.802;2022-12-18T17:10:08;12.33;;;7.43;;
74791;SDS011;63319;46.046;17.802;2022-12-18T17:13:16;12.25;;;7.45;;
74791;SDS011;63319;46.046;17.802;2022-12-18T17:16:27;11.98;;;7.47;;
74791;SDS011;63319;46.046;17.802;2022-12-18T17:19:33;12.45;;;7.65;;
74791;SDS011;63319;46.046;17.802;2022-12-18T17:22:37;11.60;;;6.95;;
74791;SDS011;63319;46.046;17.802;2022-12-18T17:25:40;13.73;;;7.27;;
74791;SDS011;63319;46.046;17.802;2022-12-18T17:28:44;13.70;;;7.93;;
74791;SDS011;63319;46.046;17.802;2022-12-18T17:31:49;13.55;;;8.00;;
74791;SDS011;63319;46.046;17.802;2022-12-18T17:34:55;12.27;;;7.40;;
74791;SDS011;63319;46.046;17.802;2022-12-18T17:38:07;13.18;;;7.55;;
74791;SDS011;63319;46.046;17.802;2022-12-18T17:41:11;12.23;;;7.83;;
74791;SDS011;63319;46.046;17.802;2022-12-18T17:44:15;13.20;;;7.60;;
74791;SDS011;63319;46.046;17.802;2022-12-18T17:47:19;14.02;;;8.65;;
74791;SDS011;63319;46.046;17.802;2022-12-18T17:50:24;14.98;;;8.45;;
74791;SDS011;63319;46.046;17.802;2022-12-18T17:53:28;14.07;;;8.25;;
74791;SDS011;63319;46.046;17.802;2022-12-18T17:56:32;11.90;;;7.93;;
74791;SDS011;63319;46.046;17.802;2022-12-18T17:59:37;14.15;;;8.48;;
74791;SDS011;63319;46.046;17.802;2022-12-18T18:02:44;14.02;;;8.85;;
74791;SDS011;63319;46.046;17.802;2022-12-18T18:05:59;12.27;;;7.40;;
74791;SDS011;63319;46.046;17.802;2022-12-18T18:09:04;13.00;;;8.02;;
74791;SDS011;63319;46.046;17.802;2022-12-18T18:12:14;14.47;;;8.80;;
74791;SDS011;63319;46.046;17.802;2022-12-18T18:15:37;13.20;;;8.23;;
74791;SDS011;63319;46.046;17.802;2022-12-18T18:18:41;14.00;;;8.43;;
74791;SDS011;63319;46.046;17.802;2022-12-18T18:21:57;13.45;;;8.70;;
74791;SDS011;63319;46.046;17.802;2022-12-18T18:25:01;13.40;;;8.57;;
74791;SDS011;63319;46.046;17.802;2022-12-18T18:28:08;13.90;;;8.20;;
74791;SDS011;63319;46.046;17.802;2022-12-18T18:31:11;13.00;;;8.48;;
74791;SDS011;63319;46.046;17.802;2022-12-18T18:34:20;13.38;;;8.48;;
74791;SDS011;63319;46.046;17.802;2022-12-18T18:37:26;12.40;;;7.80;;
74791;SDS011;63319;46.046;17.802;2022-12-18T18:40:30;14.65;;;8.93;;
74791;SDS011;63319;46.046;17.802;2022-12-18T18:43:33;13.53;;;8.03;;
74791;SDS011;63319;46.046;17.802;2022-12-18T18:46:41;14.02;;;8.48;;
74791;SDS011;63319;46.046;17.802;2022-12-18T18:49:45;14.43;;;8.65;;
74791;SDS011;63319;46.046;17.802;2022-12-18T18:52:49;13.50;;;8.48;;
74791;SDS011;63319;46.046;17.802;2022-12-18T18:55:53;13.48;;;8.57;;
74791;SDS011;63319;46.046;17.802;2022-12-18T18:59:19;14.20;;;9.10;;
74791;SDS011;63319;46.046;17.802;2022-12-18T19:02:32;13.82;;;9.00;;
74791;SDS011;63319;46.046;17.802;2022-12-18T19:05:36;15.27;;;9.40;;
74791;SDS011;63319;46.046;17.802;2022-12-18T19:08:45;14.90;;;9.25;;
74791;SDS011;63319;46.046;17.802;2022-12-18T19:11:50;14.98;;;9.02;;
74791;SDS011;63319;46.046;17.802;2022-12-18T19:15:12;14.60;;;9.33;;
74791;SDS011;63319;46.046;17.802;2022-12-18T19:18:16;14.45;;;9.15;;
74791;SDS011;63319;46.046;17.802;2022-12-18T19:21:19;14.73;;;10.52;;
74791;SDS011;63319;46.046;17.802;2022-12-18T19:24:26;16.02;;;9.73;;
74791;SDS011;63319;46.046;17.802;2022-12-18T19:27:30;17.00;;;10.23;;
74791;SDS011;63319;46.046;17.802;2022-12-18T19:30:36;14.27;;;8.90;;
74791;SDS011;63319;46.046;17.802;2022-12-18T19:33:44;14.55;;;9.43;;
74791;SDS011;63319;46.046;17.802;2022-12-18T19:36:50;15.38;;;10.30;;
74791;SDS011;63319;46.046;17.802;2022-12-18T19:40:01;16.50;;;9.98;;
74791;SDS011;63319;46.046;17.802;2022-12-18T19:43:15;15.17;;;8.87;;
74791;SDS011;63319;46.046;17.802;2022-12-18T19:46:22;14.77;;;9.43;;
74791;SDS011;63319;46.046;17.802;2022-12-18T19:49:29;14.57;;;9.40;;
74791;SDS011;63319;46.046;17.802;2022-12-18T19:52:35;14.32;;;9.23;;
74791;SDS011;63319;46.046;17.802;2022-12-18T19:55:42;14.65;;;8.75;;